sensor_id;sensor_type;location;lat;lon;timestamp;P1;durP1;ratioP1;P2;durP2;ratioP2
48205;SDS011;33995;48.202;16.260;2023-02-12T00:00:02;21.87;;;18.67;;
48205;SDS011;33995;48.202;16.260;2023-02-12T00:02:44;22.27;;;19.40;;
48205;SDS011;33995;48.202;16.260;2023-02-12T00:05:13;21.93;;;18.77;;
48205;SDS011;33995;48.202;16.260;2023-02-12T00:07:41;24.10;;;19.47;;
48205;SDS011;33995;48.202;16.260;2023-02-12T00:10:11;23.40;;;19.23;;
48205;SDS011;33995;48.202;16.260;2023-02-12T00:12:41;23.13;;;20.07;;
48205;SDS011;33995;48.202;16.260;2023-02-12T00:15:12;23.43;;;19.30;;
48205;SDS011;33995;48.202;16.260;2023-02-12T00:17:46;22.60;;;19.13;;
48205;SDS011;33995;48.202;16.260;2023-02-12T00:20:13;22.57;;;19.13;;
48205;SDS011;33995;48.202;16.260;2023-02-12T00:22:41;22.47;;;19.43;;
48205;SDS011;33995;48.202;16.260;2023-02-12T00:25:13;23.27;;;19.20;;
48205;SDS011;33995;48.202;16.260;2023-02-12T00:27:45;23.50;;;19.30;;
48205;SDS011;33995;48.202;16.260;2023-02-12T00:30:12;24.13;;;19.80;;
48205;SDS011;33995;48.202;16.260;2023-02-12T00:32:44;23.67;;;19.57;;
48205;SDS011;33995;48.202;16.260;2023-02-12T00:35:12;23.07;;;19.10;;
48205;SDS011;33995;48.202;16.260;2023-02-12T00:37:40;23.00;;;18.63;;
48205;SDS011;33995;48.202;16.260;2023-02-12T00:40:09;22.47;;;19.10;;
48205;SDS011;33995;48.202;16.260;2023-02-12T00:42:39;22.50;;;19.00;;
48205;SDS011;33995;48.202;16.260;2023-02-12T00:45:09;21.90;;;19.27;;
48205;SDS011;33995;48.202;16.260;2023-02-12T00:47:36;23.67;;;18.93;;
48205;SDS011;33995;48.202;16.260;2023-02-12T00:50:07;23.03;;;19.33;;
48205;SDS011;33995;48.202;16.260;2023-02-12T00:52:35;23.47;;;19.73;;
48205;SDS011;33995;48.202;16.260;2023-02-12T00:55:04;24.60;;;18.77;;
48205;SDS011;33995;48.202;16.260;2023-02-12T00:57:32;23.90;;;18.57;;
48205;SDS011;33995;48.202;16.260;2023-02-12T01:00:03;23.30;;;18.97;;
48205;SDS011;33995;48.202;16.260;2023-02-12T01:02:32;22.33;;;18.43;;
48205;SDS011;33995;48.202;16.260;2023-02-12T01:05:00;22.13;;;19.27;;
48205;SDS011;33995;48.202;16.260;2023-02-12T01:07:31;24.40;;;19.83;;
48205;SDS011;33995;48.202;16.260;2023-02-12T01:10:00;22.97;;;19.00;;
48205;SDS011;33995;48.202;16.260;2023-02-12T01:12:31;22.53;;;18.83;;
48205;SDS011;33995;48.202;16.260;2023-02-12T01:15:02;22.50;;;19.50;;
48205;SDS011;33995;48.202;16.260;2023-02-12T01:17:30;22.37;;;18.87;;
48205;SDS011;33995;48.202;16.260;2023-02-12T01:19:57;22.13;;;18.63;;
48205;SDS011;33995;48.202;16.260;2023-02-12T01:22:28;23.50;;;19.80;;
48205;SDS011;33995;48.202;16.260;2023-02-12T01:24:58;22.70;;;19.70;;
48205;SDS011;33995;48.202;16.260;2023-02-12T01:27:31;23.17;;;19.67;;
48205;SDS011;33995;48.202;16.260;2023-02-12T01:29:59;23.53;;;19.30;;
48205;SDS011;33995;48.202;16.260;2023-02-12T01:32:29;22.50;;;19.07;;
48205;SDS011;33995;48.202;16.260;2023-02-12T01:34:57;22.33;;;19.13;;
48205;SDS011;33995;48.202;16.260;2023-02-12T01:37:24;22.87;;;19.43;;
48205;SDS011;33995;48.202;16.260;2023-02-12T01:39:54;24.27;;;20.47;;
48205;SDS011;33995;48.202;16.260;2023-02-12T01:42:25;24.83;;;19.67;;
48205;SDS011;33995;48.202;16.260;2023-02-12T01:47:44;24.80;;;19.33;;
48205;SDS011;33995;48.202;16.260;2023-02-12T01:50:14;25.57;;;20.27;;
48205;SDS011;33995;48.202;16.260;2023-02-12T01:52:49;26.30;;;21.03;;
48205;SDS011;33995;48.202;16.260;2023-02-12T01:55:23;26.20;;;20.63;;
48205;SDS011;33995;48.202;16.260;2023-02-12T01:57:51;23.70;;;20.47;;
48205;SDS011;33995;48.202;16.260;2023-02-12T02:00:24;25.43;;;21.13;;
48205;SDS011;33995;48.202;16.260;2023-02-12T02:02:57;25.67;;;20.90;;
48205;SDS011;33995;48.202;16.260;2023-02-12T02:08:26;26.17;;;20.93;;
48205;SDS011;33995;48.202;16.260;2023-02-12T02:10:56;25.47;;;20.77;;
48205;SDS011;33995;48.202;16.260;2023-02-12T02:13:25;26.43;;;20.90;;
48205;SDS011;33995;48.202;16.260;2023-02-12T02:16:23;26.03;;;20.10;;
48205;SDS011;33995;48.202;16.260;2023-02-12T02:18:57;25.73;;;21.57;;
48205;SDS011;33995;48.202;16.260;2023-02-12T02:22:09;26.03;;;21.50;;
48205;SDS011;33995;48.202;16.260;2023-02-12T02:28:16;25.37;;;20.40;;
48205;SDS011;33995;48.202;16.260;2023-02-12T02:31:19;25.73;;;21.00;;
48205;SDS011;33995;48.202;16.260;2023-02-12T02:45:32;24.50;;;20.17;;
48205;SDS011;33995;48.202;16.260;2023-02-12T02:48:13;25.80;;;20.23;;
48205;SDS011;33995;48.202;16.260;2023-02-12T02:50:46;24.30;;;20.63;;
48205;SDS011;33995;48.202;16.260;2023-02-12T02:53:29;23.37;;;20.07;;
48205;SDS011;33995;48.202;16.260;2023-02-12T02:56:02;24.20;;;20.90;;
48205;SDS011;33995;48.202;16.260;2023-02-12T02:58:42;26.10;;;21.53;;
48205;SDS011;33995;48.202;16.260;2023-02-12T03:01:25;27.67;;;22.00;;
48205;SDS011;33995;48.202;16.260;2023-02-12T03:06:46;30.30;;;22.80;;
48205;SDS011;33995;48.202;16.260;2023-02-12T03:09:39;27.17;;;22.37;;
48205;SDS011;33995;48.202;16.260;2023-02-12T03:12:16;26.10;;;21.87;;
48205;SDS011;33995;48.202;16.260;2023-02-12T03:15:00;28.23;;;22.70;;
48205;SDS011;33995;48.202;16.260;2023-02-12T03:17:45;27.10;;;22.43;;
48205;SDS011;33995;48.202;16.260;2023-02-12T03:23:10;28.50;;;23.03;;
48205;SDS011;33995;48.202;16.260;2023-02-12T03:26:14;31.30;;;23.30;;
48205;SDS011;33995;48.202;16.260;2023-02-12T03:28:47;29.60;;;23.03;;
48205;SDS011;33995;48.202;16.260;2023-02-12T03:31:36;30.57;;;25.27;;
48205;SDS011;33995;48.202;16.260;2023-02-12T03:34:39;28.43;;;23.27;;
48205;SDS011;33995;48.202;16.260;2023-02-12T03:40:49;29.33;;;23.80;;
48205;SDS011;33995;48.202;16.260;2023-02-12T03:46:07;30.57;;;25.13;;
48205;SDS011;33995;48.202;16.260;2023-02-12T03:52:03;29.53;;;23.77;;
48205;SDS011;33995;48.202;16.260;2023-02-12T03:54:32;31.57;;;24.07;;
48205;SDS011;33995;48.202;16.260;2023-02-12T03:59:52;30.13;;;24.33;;
48205;SDS011;33995;48.202;16.260;2023-02-12T04:02:20;31.40;;;24.57;;
48205;SDS011;33995;48.202;16.260;2023-02-12T04:04:51;29.13;;;24.37;;
48205;SDS011;33995;48.202;16.260;2023-02-12T04:07:21;30.73;;;23.87;;
48205;SDS011;33995;48.202;16.260;2023-02-12T04:09:52;29.17;;;23.27;;
48205;SDS011;33995;48.202;16.260;2023-02-12T04:21:14;28.50;;;23.40;;
48205;SDS011;33995;48.202;16.260;2023-02-12T04:24:05;30.47;;;23.60;;
48205;SDS011;33995;48.202;16.260;2023-02-12T04:26:53;29.43;;;23.00;;
48205;SDS011;33995;48.202;16.260;2023-02-12T04:35:06;27.30;;;22.53;;
48205;SDS011;33995;48.202;16.260;2023-02-12T04:41:08;27.60;;;22.83;;
48205;SDS011;33995;48.202;16.260;2023-02-12T04:43:36;27.27;;;22.10;;
48205;SDS011;33995;48.202;16.260;2023-02-12T04:46:05;27.73;;;22.20;;
48205;SDS011;33995;48.202;16.260;2023-02-12T04:48:33;27.93;;;22.43;;
48205;SDS011;33995;48.202;16.260;2023-02-12T04:51:06;26.40;;;21.93;;
48205;SDS011;33995;48.202;16.260;2023-02-12T04:53:38;29.33;;;22.83;;
48205;SDS011;33995;48.202;16.260;2023-02-12T04:56:08;27.30;;;22.10;;
48205;SDS011;33995;48.202;16.260;2023-02-12T04:58:40;30.50;;;23.87;;
48205;SDS011;33995;48.202;16.260;2023-02-12T05:01:12;29.80;;;23.13;;
48205;SDS011;33995;48.202;16.260;2023-02-12T05:03:42;27.30;;;22.10;;
48205;SDS011;33995;48.202;16.260;2023-02-12T05:06:11;27.60;;;23.00;;
48205;SDS011;33995;48.202;16.260;2023-02-12T05:08:43;27.17;;;21.97;;
48205;SDS011;33995;48.202;16.260;2023-02-12T05:11:14;26.00;;;22.27;;
48205;SDS011;33995;48.202;16.260;2023-02-12T05:13:42;26.87;;;22.03;;
48205;SDS011;33995;48.202;16.260;2023-02-12T05:16:10;28.60;;;22.60;;
48205;SDS011;33995;48.202;16.260;2023-02-12T05:18:40;33.27;;;23.70;;
48205;SDS011;33995;48.202;16.260;2023-02-12T05:21:12;27.23;;;23.10;;
48205;SDS011;33995;48.202;16.260;2023-02-12T05:23:40;28.00;;;22.77;;
48205;SDS011;33995;48.202;16.260;2023-02-12T05:26:12;30.13;;;23.10;;
48205;SDS011;33995;48.202;16.260;2023-02-12T05:28:54;29.40;;;23.27;;
48205;SDS011;33995;48.202;16.260;2023-02-12T05:31:25;28.43;;;23.10;;
48205;SDS011;33995;48.202;16.260;2023-02-12T05:33:56;30.87;;;22.70;;
48205;SDS011;33995;48.202;16.260;2023-02-12T05:36:26;29.80;;;24.03;;
48205;SDS011;33995;48.202;16.260;2023-02-12T05:38:57;29.17;;;24.00;;
48205;SDS011;33995;48.202;16.260;2023-02-12T05:41:26;29.40;;;23.93;;
48205;SDS011;33995;48.202;16.260;2023-02-12T05:43:57;27.80;;;22.67;;
48205;SDS011;33995;48.202;16.260;2023-02-12T05:46:27;29.00;;;23.10;;
48205;SDS011;33995;48.202;16.260;2023-02-12T05:48:57;28.80;;;23.03;;
48205;SDS011;33995;48.202;16.260;2023-02-12T05:51:25;25.90;;;22.53;;
48205;SDS011;33995;48.202;16.260;2023-02-12T05:53:58;29.73;;;24.43;;
48205;SDS011;33995;48.202;16.260;2023-02-12T05:56:38;30.10;;;24.33;;
48205;SDS011;33995;48.202;16.260;2023-02-12T05:59:20;31.00;;;24.53;;
48205;SDS011;33995;48.202;16.260;2023-02-12T06:01:52;28.10;;;23.23;;
48205;SDS011;33995;48.202;16.260;2023-02-12T06:04:25;31.10;;;24.53;;
48205;SDS011;33995;48.202;16.260;2023-02-12T06:06:56;30.10;;;24.37;;
48205;SDS011;33995;48.202;16.260;2023-02-12T06:09:25;30.27;;;25.10;;
48205;SDS011;33995;48.202;16.260;2023-02-12T06:11:59;30.57;;;24.13;;
48205;SDS011;33995;48.202;16.260;2023-02-12T06:14:28;34.10;;;26.07;;
48205;SDS011;33995;48.202;16.260;2023-02-12T06:16:58;32.23;;;25.50;;
48205;SDS011;33995;48.202;16.260;2023-02-12T06:19:27;31.57;;;25.53;;
48205;SDS011;33995;48.202;16.260;2023-02-12T06:21:56;30.50;;;25.57;;
48205;SDS011;33995;48.202;16.260;2023-02-12T06:24:28;32.37;;;26.67;;
48205;SDS011;33995;48.202;16.260;2023-02-12T06:26:58;32.90;;;25.47;;
48205;SDS011;33995;48.202;16.260;2023-02-12T06:29:28;32.90;;;26.07;;
48205;SDS011;33995;48.202;16.260;2023-02-12T06:31:56;31.77;;;26.03;;
48205;SDS011;33995;48.202;16.260;2023-02-12T06:34:28;32.57;;;26.43;;
48205;SDS011;33995;48.202;16.260;2023-02-12T06:36:56;36.80;;;27.17;;
48205;SDS011;33995;48.202;16.260;2023-02-12T06:39:27;32.30;;;25.43;;
48205;SDS011;33995;48.202;16.260;2023-02-12T06:41:54;31.93;;;25.93;;
48205;SDS011;33995;48.202;16.260;2023-02-12T06:44:21;34.30;;;26.73;;
48205;SDS011;33995;48.202;16.260;2023-02-12T06:46:52;33.63;;;26.23;;
48205;SDS011;33995;48.202;16.260;2023-02-12T06:49:21;31.77;;;25.63;;
48205;SDS011;33995;48.202;16.260;2023-02-12T06:51:51;34.07;;;25.50;;
48205;SDS011;33995;48.202;16.260;2023-02-12T06:54:20;31.30;;;25.63;;
48205;SDS011;33995;48.202;16.260;2023-02-12T06:56:50;31.93;;;26.37;;
48205;SDS011;33995;48.202;16.260;2023-02-12T06:59:18;33.07;;;26.77;;
48205;SDS011;33995;48.202;16.260;2023-02-12T07:01:48;33.17;;;26.00;;
48205;SDS011;33995;48.202;16.260;2023-02-12T07:04:16;30.33;;;25.47;;
48205;SDS011;33995;48.202;16.260;2023-02-12T07:06:47;31.67;;;26.17;;
48205;SDS011;33995;48.202;16.260;2023-02-12T07:09:15;31.43;;;25.07;;
48205;SDS011;33995;48.202;16.260;2023-02-12T07:11:46;32.00;;;25.33;;
48205;SDS011;33995;48.202;16.260;2023-02-12T07:14:17;32.07;;;26.07;;
48205;SDS011;33995;48.202;16.260;2023-02-12T07:16:45;30.30;;;24.43;;
48205;SDS011;33995;48.202;16.260;2023-02-12T07:19:13;34.03;;;25.60;;
48205;SDS011;33995;48.202;16.260;2023-02-12T07:21:45;34.63;;;27.13;;
48205;SDS011;33995;48.202;16.260;2023-02-12T07:24:15;31.13;;;25.67;;
48205;SDS011;33995;48.202;16.260;2023-02-12T07:26:45;29.37;;;24.60;;
48205;SDS011;33995;48.202;16.260;2023-02-12T07:29:16;29.13;;;24.50;;
48205;SDS011;33995;48.202;16.260;2023-02-12T07:31:44;31.23;;;25.07;;
48205;SDS011;33995;48.202;16.260;2023-02-12T07:34:16;31.27;;;25.67;;
48205;SDS011;33995;48.202;16.260;2023-02-12T07:36:44;31.33;;;25.20;;
48205;SDS011;33995;48.202;16.260;2023-02-12T07:39:12;30.30;;;24.23;;
48205;SDS011;33995;48.202;16.260;2023-02-12T07:41:44;32.03;;;24.63;;
48205;SDS011;33995;48.202;16.260;2023-02-12T07:44:14;33.40;;;26.30;;
48205;SDS011;33995;48.202;16.260;2023-02-12T07:46:50;31.37;;;25.53;;
48205;SDS011;33995;48.202;16.260;2023-02-12T07:49:20;30.67;;;25.00;;
48205;SDS011;33995;48.202;16.260;2023-02-12T07:51:53;30.40;;;24.77;;
48205;SDS011;33995;48.202;16.260;2023-02-12T07:54:24;32.20;;;25.17;;
48205;SDS011;33995;48.202;16.260;2023-02-12T07:56:54;28.87;;;23.77;;
48205;SDS011;33995;48.202;16.260;2023-02-12T07:59:25;28.70;;;23.67;;
48205;SDS011;33995;48.202;16.260;2023-02-12T08:01:55;29.23;;;23.73;;
48205;SDS011;33995;48.202;16.260;2023-02-12T08:04:32;30.30;;;24.80;;
48205;SDS011;33995;48.202;16.260;2023-02-12T08:06:59;30.53;;;23.83;;
48205;SDS011;33995;48.202;16.260;2023-02-12T08:09:31;29.70;;;24.00;;
48205;SDS011;33995;48.202;16.260;2023-02-12T08:11:58;33.67;;;26.87;;
48205;SDS011;33995;48.202;16.260;2023-02-12T08:14:28;32.73;;;26.70;;
48205;SDS011;33995;48.202;16.260;2023-02-12T08:16:57;29.40;;;24.60;;
48205;SDS011;33995;48.202;16.260;2023-02-12T08:19:29;32.30;;;25.50;;
48205;SDS011;33995;48.202;16.260;2023-02-12T08:21:57;32.43;;;25.90;;
48205;SDS011;33995;48.202;16.260;2023-02-12T08:24:26;31.87;;;25.97;;
48205;SDS011;33995;48.202;16.260;2023-02-12T08:26:54;31.77;;;25.10;;
48205;SDS011;33995;48.202;16.260;2023-02-12T08:29:27;28.70;;;24.23;;
48205;SDS011;33995;48.202;16.260;2023-02-12T08:32:02;28.13;;;23.33;;
48205;SDS011;33995;48.202;16.260;2023-02-12T08:34:34;28.60;;;23.50;;
48205;SDS011;33995;48.202;16.260;2023-02-12T08:37:04;30.63;;;25.60;;
48205;SDS011;33995;48.202;16.260;2023-02-12T08:39:32;33.10;;;25.87;;
48205;SDS011;33995;48.202;16.260;2023-02-12T08:42:01;39.43;;;30.47;;
48205;SDS011;33995;48.202;16.260;2023-02-12T08:44:29;36.57;;;28.90;;
48205;SDS011;33995;48.202;16.260;2023-02-12T08:46:58;40.20;;;31.63;;
48205;SDS011;33995;48.202;16.260;2023-02-12T08:49:26;32.03;;;27.77;;
48205;SDS011;33995;48.202;16.260;2023-02-12T08:51:59;30.80;;;26.53;;
48205;SDS011;33995;48.202;16.260;2023-02-12T08:54:34;30.63;;;25.90;;
48205;SDS011;33995;48.202;16.260;2023-02-12T08:57:03;29.30;;;25.00;;
48205;SDS011;33995;48.202;16.260;2023-02-12T08:59:31;28.23;;;23.90;;
48205;SDS011;33995;48.202;16.260;2023-02-12T09:02:02;27.87;;;23.30;;
48205;SDS011;33995;48.202;16.260;2023-02-12T09:04:34;28.20;;;23.80;;
48205;SDS011;33995;48.202;16.260;2023-02-12T09:07:02;32.17;;;27.50;;
48205;SDS011;33995;48.202;16.260;2023-02-12T09:09:29;28.87;;;25.00;;
48205;SDS011;33995;48.202;16.260;2023-02-12T09:12:05;28.23;;;24.10;;
48205;SDS011;33995;48.202;16.260;2023-02-12T09:14:36;31.83;;;28.43;;
48205;SDS011;33995;48.202;16.260;2023-02-12T09:17:04;35.93;;;29.53;;
48205;SDS011;33995;48.202;16.260;2023-02-12T09:19:33;31.70;;;26.47;;
48205;SDS011;33995;48.202;16.260;2023-02-12T09:22:05;29.43;;;24.57;;
48205;SDS011;33995;48.202;16.260;2023-02-12T09:24:35;32.87;;;27.33;;
48205;SDS011;33995;48.202;16.260;2023-02-12T09:27:05;29.00;;;25.43;;
48205;SDS011;33995;48.202;16.260;2023-02-12T09:29:35;27.00;;;23.67;;
48205;SDS011;33995;48.202;16.260;2023-02-12T09:32:05;27.03;;;22.93;;
48205;SDS011;33995;48.202;16.260;2023-02-12T09:34:36;25.13;;;22.43;;
48205;SDS011;33995;48.202;16.260;2023-02-12T09:37:04;24.60;;;21.27;;
48205;SDS011;33995;48.202;16.260;2023-02-12T09:39:32;25.03;;;21.43;;
48205;SDS011;33995;48.202;16.260;2023-02-12T09:42:20;24.30;;;21.30;;
48205;SDS011;33995;48.202;16.260;2023-02-12T09:50:34;25.47;;;21.20;;
48205;SDS011;33995;48.202;16.260;2023-02-12T09:53:18;26.87;;;22.43;;
48205;SDS011;33995;48.202;16.260;2023-02-12T09:55:52;23.47;;;20.83;;
48205;SDS011;33995;48.202;16.260;2023-02-12T09:58:38;25.13;;;21.77;;
48205;SDS011;33995;48.202;16.260;2023-02-12T10:01:18;23.47;;;19.97;;
48205;SDS011;33995;48.202;16.260;2023-02-12T10:03:51;24.03;;;20.37;;
48205;SDS011;33995;48.202;16.260;2023-02-12T10:24:39;18.00;;;16.10;;
48205;SDS011;33995;48.202;16.260;2023-02-12T10:27:13;20.37;;;17.03;;
48205;SDS011;33995;48.202;16.260;2023-02-12T10:29:51;20.07;;;16.60;;
48205;SDS011;33995;48.202;16.260;2023-02-12T10:35:10;18.67;;;16.00;;
48205;SDS011;33995;48.202;16.260;2023-02-12T10:37:47;20.93;;;18.60;;
48205;SDS011;33995;48.202;16.260;2023-02-12T10:40:35;17.63;;;15.67;;
48205;SDS011;33995;48.202;16.260;2023-02-12T10:43:14;17.90;;;16.00;;
48205;SDS011;33995;48.202;16.260;2023-02-12T10:45:46;16.30;;;14.43;;
48205;SDS011;33995;48.202;16.260;2023-02-12T10:48:31;16.53;;;14.73;;
48205;SDS011;33995;48.202;16.260;2023-02-12T10:54:29;15.97;;;14.27;;
48205;SDS011;33995;48.202;16.260;2023-02-12T10:59:55;18.10;;;16.17;;
48205;SDS011;33995;48.202;16.260;2023-02-12T11:06:14;15.43;;;13.43;;
48205;SDS011;33995;48.202;16.260;2023-02-12T11:08:54;16.43;;;13.37;;
48205;SDS011;33995;48.202;16.260;2023-02-12T11:11:30;15.17;;;13.50;;
48205;SDS011;33995;48.202;16.260;2023-02-12T11:14:18;16.20;;;13.10;;
48205;SDS011;33995;48.202;16.260;2023-02-12T11:19:46;15.50;;;12.90;;
48205;SDS011;33995;48.202;16.260;2023-02-12T11:22:33;14.37;;;12.83;;
48205;SDS011;33995;48.202;16.260;2023-02-12T11:25:02;14.67;;;13.07;;
48205;SDS011;33995;48.202;16.260;2023-02-12T11:31:28;15.37;;;13.77;;
48205;SDS011;33995;48.202;16.260;2023-02-12T11:36:45;14.93;;;12.40;;
48205;SDS011;33995;48.202;16.260;2023-02-12T11:42:14;15.60;;;14.00;;
48205;SDS011;33995;48.202;16.260;2023-02-12T11:44:53;15.80;;;14.07;;
48205;SDS011;33995;48.202;16.260;2023-02-12T11:47:27;15.43;;;13.37;;
48205;SDS011;33995;48.202;16.260;2023-02-12T11:53:07;14.77;;;13.13;;
48205;SDS011;33995;48.202;16.260;2023-02-12T11:55:39;16.63;;;14.57;;
48205;SDS011;33995;48.202;16.260;2023-02-12T11:58:30;18.93;;;15.50;;
48205;SDS011;33995;48.202;16.260;2023-02-12T12:01:21;20.73;;;16.40;;
48205;SDS011;33995;48.202;16.260;2023-02-12T12:06:57;21.03;;;17.90;;
48205;SDS011;33995;48.202;16.260;2023-02-12T12:12:40;24.50;;;19.67;;
48205;SDS011;33995;48.202;16.260;2023-02-12T12:15:26;23.73;;;20.07;;
48205;SDS011;33995;48.202;16.260;2023-02-12T12:18:38;22.63;;;20.23;;
48205;SDS011;33995;48.202;16.260;2023-02-12T12:22:01;26.47;;;21.07;;
48205;SDS011;33995;48.202;16.260;2023-02-12T12:25:04;21.90;;;18.97;;
48205;SDS011;33995;48.202;16.260;2023-02-12T12:39:34;21.47;;;16.90;;
48205;SDS011;33995;48.202;16.260;2023-02-12T12:42:42;17.50;;;15.60;;
48205;SDS011;33995;48.202;16.260;2023-02-12T12:51:28;19.60;;;15.50;;
48205;SDS011;33995;48.202;16.260;2023-02-12T12:54:34;17.67;;;15.43;;
48205;SDS011;33995;48.202;16.260;2023-02-12T13:01:05;18.77;;;15.23;;
48205;SDS011;33995;48.202;16.260;2023-02-12T13:07:26;16.77;;;13.77;;
48205;SDS011;33995;48.202;16.260;2023-02-12T13:10:14;18.83;;;15.93;;
48205;SDS011;33995;48.202;16.260;2023-02-12T13:13:12;19.53;;;16.00;;
48205;SDS011;33995;48.202;16.260;2023-02-12T13:21:48;18.10;;;14.93;;
48205;SDS011;33995;48.202;16.260;2023-02-12T13:24:42;17.50;;;14.30;;
48205;SDS011;33995;48.202;16.260;2023-02-12T13:27:52;18.27;;;15.03;;
48205;SDS011;33995;48.202;16.260;2023-02-12T13:36:09;21.17;;;16.53;;
48205;SDS011;33995;48.202;16.260;2023-02-12T13:41:46;18.43;;;15.63;;
48205;SDS011;33995;48.202;16.260;2023-02-12T13:50:29;21.40;;;16.43;;
48205;SDS011;33995;48.202;16.260;2023-02-12T13:53:25;19.27;;;16.27;;
48205;SDS011;33995;48.202;16.260;2023-02-12T14:05:02;18.97;;;14.20;;
48205;SDS011;33995;48.202;16.260;2023-02-12T14:07:54;17.17;;;14.63;;
48205;SDS011;33995;48.202;16.260;2023-02-12T14:11:08;16.90;;;14.47;;
48205;SDS011;33995;48.202;16.260;2023-02-12T14:16:36;20.87;;;16.77;;
48205;SDS011;33995;48.202;16.260;2023-02-12T14:30:26;21.93;;;17.70;;
48205;SDS011;33995;48.202;16.260;2023-02-12T14:33:15;19.27;;;16.53;;
48205;SDS011;33995;48.202;16.260;2023-02-12T14:36:12;22.33;;;19.40;;
48205;SDS011;33995;48.202;16.260;2023-02-12T14:39:03;20.37;;;17.70;;
48205;SDS011;33995;48.202;16.260;2023-02-12T14:41:54;18.73;;;16.10;;
48205;SDS011;33995;48.202;16.260;2023-02-12T14:44:54;18.13;;;15.60;;
48205;SDS011;33995;48.202;16.260;2023-02-12T14:50:12;17.53;;;15.20;;
48205;SDS011;33995;48.202;16.260;2023-02-12T14:53:05;18.50;;;15.33;;
48205;SDS011;33995;48.202;16.260;2023-02-12T14:55:57;17.63;;;15.40;;
48205;SDS011;33995;48.202;16.260;2023-02-12T14:58:27;17.40;;;15.20;;
48205;SDS011;33995;48.202;16.260;2023-02-12T15:01:03;18.30;;;15.50;;
48205;SDS011;33995;48.202;16.260;2023-02-12T15:03:40;17.53;;;14.67;;
48205;SDS011;33995;48.202;16.260;2023-02-12T15:09:35;18.13;;;14.97;;
48205;SDS011;33995;48.202;16.260;2023-02-12T15:12:34;19.07;;;15.27;;
48205;SDS011;33995;48.202;16.260;2023-02-12T15:15:46;17.77;;;14.77;;
48205;SDS011;33995;48.202;16.260;2023-02-12T15:19:16;19.60;;;15.77;;
48205;SDS011;33995;48.202;16.260;2023-02-12T15:22:02;18.77;;;16.10;;
48205;SDS011;33995;48.202;16.260;2023-02-12T15:24:32;19.10;;;16.20;;
48205;SDS011;33995;48.202;16.260;2023-02-12T15:27:04;17.33;;;15.17;;
48205;SDS011;33995;48.202;16.260;2023-02-12T15:29:54;19.57;;;15.63;;
48205;SDS011;33995;48.202;16.260;2023-02-12T15:32:24;19.37;;;14.93;;
48205;SDS011;33995;48.202;16.260;2023-02-12T15:34:57;18.53;;;14.87;;
48205;SDS011;33995;48.202;16.260;2023-02-12T15:37:31;18.83;;;15.07;;
48205;SDS011;33995;48.202;16.260;2023-02-12T15:40:11;18.23;;;16.23;;
48205;SDS011;33995;48.202;16.260;2023-02-12T15:42:57;21.40;;;17.80;;
48205;SDS011;33995;48.202;16.260;2023-02-12T15:45:32;20.43;;;17.03;;
48205;SDS011;33995;48.202;16.260;2023-02-12T15:48:12;19.67;;;16.37;;
48205;SDS011;33995;48.202;16.260;2023-02-12T15:54:00;20.47;;;17.00;;
48205;SDS011;33995;48.202;16.260;2023-02-12T15:56:45;20.70;;;16.97;;
48205;SDS011;33995;48.202;16.260;2023-02-12T15:59:22;19.20;;;16.43;;
48205;SDS011;33995;48.202;16.260;2023-02-12T16:02:02;20.50;;;16.13;;
48205;SDS011;33995;48.202;16.260;2023-02-12T16:04:36;19.80;;;16.43;;
48205;SDS011;33995;48.202;16.260;2023-02-12T16:07:13;20.40;;;16.40;;
48205;SDS011;33995;48.202;16.260;2023-02-12T16:09:48;22.80;;;17.60;;
48205;SDS011;33995;48.202;16.260;2023-02-12T16:12:24;19.93;;;17.23;;
48205;SDS011;33995;48.202;16.260;2023-02-12T16:14:57;22.13;;;17.73;;
48205;SDS011;33995;48.202;16.260;2023-02-12T16:17:32;21.43;;;16.97;;
48205;SDS011;33995;48.202;16.260;2023-02-12T16:20:05;21.80;;;18.20;;
48205;SDS011;33995;48.202;16.260;2023-02-12T16:22:48;22.23;;;18.53;;
48205;SDS011;33995;48.202;16.260;2023-02-12T16:28:23;21.30;;;17.73;;
48205;SDS011;33995;48.202;16.260;2023-02-12T16:31:10;25.27;;;19.40;;
48205;SDS011;33995;48.202;16.260;2023-02-12T16:36:32;24.77;;;19.33;;
48205;SDS011;33995;48.202;16.260;2023-02-12T16:39:04;25.27;;;19.97;;
48205;SDS011;33995;48.202;16.260;2023-02-12T16:41:54;22.40;;;19.07;;
48205;SDS011;33995;48.202;16.260;2023-02-12T16:44:33;23.13;;;18.90;;
48205;SDS011;33995;48.202;16.260;2023-02-12T16:47:04;23.77;;;19.67;;
48205;SDS011;33995;48.202;16.260;2023-02-12T16:49:34;22.97;;;18.83;;
48205;SDS011;33995;48.202;16.260;2023-02-12T16:55:20;24.00;;;19.33;;
48205;SDS011;33995;48.202;16.260;2023-02-12T16:57:49;21.70;;;17.87;;
48205;SDS011;33995;48.202;16.260;2023-02-12T17:00:26;25.47;;;20.73;;
48205;SDS011;33995;48.202;16.260;2023-02-12T17:03:11;21.57;;;18.87;;
48205;SDS011;33995;48.202;16.260;2023-02-12T17:05:44;22.37;;;18.43;;
48205;SDS011;33995;48.202;16.260;2023-02-12T17:08:14;23.63;;;18.43;;
48205;SDS011;33995;48.202;16.260;2023-02-12T17:10:53;23.70;;;18.57;;
48205;SDS011;33995;48.202;16.260;2023-02-12T17:13:29;22.60;;;18.57;;
48205;SDS011;33995;48.202;16.260;2023-02-12T17:15:59;23.83;;;18.37;;
48205;SDS011;33995;48.202;16.260;2023-02-12T17:18:48;25.77;;;20.87;;
48205;SDS011;33995;48.202;16.260;2023-02-12T17:21:39;28.80;;;24.30;;
48205;SDS011;33995;48.202;16.260;2023-02-12T17:24:17;29.67;;;25.57;;
48205;SDS011;33995;48.202;16.260;2023-02-12T17:26:53;28.10;;;23.97;;
48205;SDS011;33995;48.202;16.260;2023-02-12T17:29:23;26.77;;;23.43;;
48205;SDS011;33995;48.202;16.260;2023-02-12T17:31:54;27.20;;;22.00;;
48205;SDS011;33995;48.202;16.260;2023-02-12T17:34:26;26.83;;;22.23;;
48205;SDS011;33995;48.202;16.260;2023-02-12T17:37:15;26.40;;;20.80;;
48205;SDS011;33995;48.202;16.260;2023-02-12T17:39:58;26.03;;;21.17;;
48205;SDS011;33995;48.202;16.260;2023-02-12T17:42:31;26.13;;;21.20;;
48205;SDS011;33995;48.202;16.260;2023-02-12T17:45:02;26.20;;;21.80;;
48205;SDS011;33995;48.202;16.260;2023-02-12T17:47:31;27.00;;;21.43;;
48205;SDS011;33995;48.202;16.260;2023-02-12T17:50:13;24.73;;;21.10;;
48205;SDS011;33995;48.202;16.260;2023-02-12T17:52:49;25.97;;;21.27;;
48205;SDS011;33995;48.202;16.260;2023-02-12T17:55:38;26.17;;;22.30;;
48205;SDS011;33995;48.202;16.260;2023-02-12T17:58:14;25.60;;;21.37;;
48205;SDS011;33995;48.202;16.260;2023-02-12T18:01:02;26.93;;;22.10;;
48205;SDS011;33995;48.202;16.260;2023-02-12T18:03:39;26.23;;;20.93;;
48205;SDS011;33995;48.202;16.260;2023-02-12T18:06:08;25.87;;;21.37;;
48205;SDS011;33995;48.202;16.260;2023-02-12T18:08:43;26.50;;;21.67;;
48205;SDS011;33995;48.202;16.260;2023-02-12T18:11:17;29.17;;;23.40;;
48205;SDS011;33995;48.202;16.260;2023-02-12T18:13:54;28.30;;;22.83;;
48205;SDS011;33995;48.202;16.260;2023-02-12T18:16:30;29.57;;;22.70;;
48205;SDS011;33995;48.202;16.260;2023-02-12T18:19:08;27.63;;;21.70;;